Time;durP1;ratioP1;P1;durP2;ratioP2;P2;SDS_P1;SDS_P2;PMS_P1;PMS_P2;Temp;Humidity;BMP_temperature;BMP_pressure;BME280_temperature;BME280_humidity;BME280_pressure;Samples;Min_cycle;Max_cycle;Signal;HPM_P1;HPM_P2
2024/02/12 00:01:32;;;;;;;3.85;1.00;;;;;;;9.07;61.54;98033.69;10206661;28;20055;-62
2024/02/12 00:06:42;;;;;;;1.25;0.88;;;;;;;8.94;62.02;98046.91;10208335;28;20521;-62
2024/02/12 00:11:45;;;;;;;0.82;0.80;;;;;;;8.74;62.28;98053.78;10224757;28;20050;-62
2024/02/12 00:16:47;;;;;;;1.15;0.73;;;;;;;8.67;62.93;98052.59;10217496;28;20550;-63
2024/02/12 00:21:50;;;;;;;1.38;0.93;;;;;;;8.73;62.71;98048.66;10211487;28;20060;-63
2024/02/12 00:26:53;;;;;;;1.02;0.93;;;;;;;8.74;62.70;98055.53;10209525;28;20066;-62
2024/02/12 00:31:58;;;;;;;1.30;0.93;;;;;;;8.76;63.01;98064.06;10203715;28;20542;-63
2024/02/12 00:37:00;;;;;;;3.35;1.17;;;;;;;8.76;63.00;98064.06;10215391;28;20113;-62
2024/02/12 00:42:08;;;;;;;1.77;1.00;;;;;;;8.71;63.12;98069.63;10218710;28;20063;-63
2024/02/12 00:47:10;;;;;;;0.73;0.63;;;;;;;8.69;63.20;98068.09;10217988;28;20074;-62
2024/02/12 00:52:14;;;;;;;0.98;0.85;;;;;;;8.68;63.21;98075.13;10207055;28;20055;-62
2024/02/12 00:57:16;;;;;;;1.33;1.05;;;;;;;8.62;63.28;98074.78;10210714;28;22296;-62
2024/02/12 01:02:18;;;;;;;3.58;1.20;;;;;;;8.53;63.54;98084.16;10207795;28;20043;-63
2024/02/12 01:07:20;;;;;;;3.03;0.98;;;;;;;8.44;63.72;98076.28;10203565;28;20047;-62
2024/02/12 01:12:23;;;;;;;2.03;1.00;;;;;;;8.41;63.86;98077.34;10216646;28;20116;-62
2024/02/12 01:17:27;;;;;;;1.25;1.08;;;;;;;8.23;64.48;98086.63;10219788;28;20124;-63
2024/02/12 01:22:29;;;;;;;0.57;0.57;;;;;;;8.06;65.05;98088.88;10223128;28;20051;-62
2024/02/12 01:27:31;;;;;;;0.77;0.77;;;;;;;8.02;65.10;98099.50;10221189;28;20051;-62
2024/02/12 01:32:33;;;;;;;2.72;0.90;;;;;;;8.04;65.47;98102.00;10216836;28;20058;-62
2024/02/12 01:37:36;;;;;;;1.23;0.80;;;;;;;8.01;65.72;98102.25;10213223;28;20059;-62
2024/02/12 01:42:38;;;;;;;2.35;0.80;;;;;;;7.98;66.23;98107.69;10217129;28;20418;-62
2024/02/12 01:47:43;;;;;;;2.90;1.27;;;;;;;7.94;66.22;98117.50;10217682;28;20062;-62
2024/02/12 01:52:49;;;;;;;1.10;0.80;;;;;;;7.95;66.44;98121.78;10210244;28;20047;-62
2024/02/12 01:57:52;;;;;;;3.17;0.82;;;;;;;7.89;66.58;98130.06;10210514;28;20048;-61
2024/02/12 02:02:56;;;;;;;0.95;0.82;;;;;;;7.89;66.62;98126.63;10215691;28;20043;-61
2024/02/12 02:08:00;;;;;;;1.38;1.00;;;;;;;7.99;66.36;98136.22;10218070;28;20066;-61
2024/02/12 02:13:03;;;;;;;0.57;0.57;;;;;;;7.94;66.61;98146.13;10211362;28;20043;-60
2024/02/12 02:18:25;;;;;;;4.80;1.02;;;;;;;8.01;66.32;98146.50;10214158;28;20043;-61
2024/02/12 02:23:45;;;;;;;0.73;0.63;;;;;;;8.02;66.47;98145.53;10221952;28;20724;-61
2024/02/12 02:28:47;;;;;;;3.38;1.02;;;;;;;8.07;66.37;98153.00;10227508;28;20036;-60
2024/02/12 02:33:49;;;;;;;3.20;0.95;;;;;;;8.15;66.05;98158.47;10218108;28;20047;-60
2024/02/12 02:38:53;;;;;;;1.48;0.80;;;;;;;8.07;66.25;98161.66;10211985;28;20066;-61
2024/02/12 02:43:56;;;;;;;0.65;0.60;;;;;;;7.93;66.84;98167.09;10209874;28;20055;-61
2024/02/12 02:48:58;;;;;;;1.10;0.80;;;;;;;7.80;67.25;98171.56;10213041;28;20047;-61
2024/02/12 02:54:01;;;;;;;1.27;0.93;;;;;;;7.67;67.61;98171.66;10212165;28;20061;-61
2024/02/12 02:59:03;;;;;;;1.88;1.00;;;;;;;7.66;67.39;98174.38;10214172;28;20047;-61
2024/02/12 03:04:06;;;;;;;1.15;0.60;;;;;;;7.61;67.50;98169.53;10224274;28;20058;-60
2024/02/12 03:09:10;;;;;;;0.98;0.73;;;;;;;7.53;67.98;98174.47;10217327;28;20047;-61
2024/02/12 03:14:12;;;;;;;0.70;0.70;;;;;;;7.55;67.88;98183.00;10222866;28;20048;-61
2024/02/12 03:19:14;;;;;;;1.17;0.80;;;;;;;7.50;68.08;98194.69;10210977;28;20047;-61
2024/02/12 03:24:19;;;;;;;2.95;0.95;;;;;;;7.62;67.70;98193.78;10223272;28;20063;-60
2024/02/12 03:29:23;;;;;;;0.57;0.57;;;;;;;7.71;67.55;98208.72;10211863;28;20134;-61
2024/02/12 03:34:29;;;;;;;2.42;1.00;;;;;;;7.74;67.62;98208.47;10216170;28;20137;-61
2024/02/12 03:39:31;;;;;;;2.80;1.42;;;;;;;7.68;67.58;98216.72;10221223;28;20059;-60
2024/02/12 03:44:34;;;;;;;3.10;1.08;;;;;;;7.61;67.95;98223.34;10225038;28;20058;-61
2024/02/12 04:00:24;;;;;;;0.60;0.60;;;;;;;7.83;67.39;98250.22;10214958;28;20051;-61
2024/02/12 04:05:27;;;;;;;0.88;0.70;;;;;;;7.79;67.61;98253.19;10208305;28;20041;-61
2024/02/12 04:10:29;;;;;;;0.60;0.60;;;;;;;7.81;67.43;98272.13;10210375;28;20491;-60
2024/02/12 04:15:31;;;;;;;0.85;0.60;;;;;;;7.87;67.34;98269.06;10207194;28;20415;-61
2024/02/12 04:20:35;;;;;;;1.17;1.10;;;;;;;7.95;67.20;98288.38;10209866;28;20120;-62
2024/02/12 04:25:37;;;;;;;1.40;0.73;;;;;;;8.10;66.91;98283.78;10223311;28;20049;-62
2024/02/12 04:30:39;;;;;;;1.17;0.82;;;;;;;8.13;66.80;98290.56;10220422;28;20043;-62
2024/02/12 04:35:41;;;;;;;1.10;0.88;;;;;;;8.05;67.02;98296.31;10211053;28;20503;-62
2024/02/12 04:40:43;;;;;;;0.95;0.70;;;;;;;8.03;67.17;98304.25;10188012;28;20502;-62
2024/02/12 04:45:45;;;;;;;1.88;1.00;;;;;;;8.07;67.26;98310.03;10215027;28;20503;-62
2024/02/12 04:50:48;;;;;;;2.28;0.80;;;;;;;8.03;67.39;98319.03;10225787;28;20043;-63
2024/02/12 04:55:50;;;;;;;0.77;0.70;;;;;;;7.95;67.58;98326.59;10222049;28;20410;-62
2024/02/12 05:00:52;;;;;;;1.00;0.70;;;;;;;7.82;67.82;98324.06;10221317;28;20212;-61
2024/02/12 05:05:54;;;;;;;1.08;0.68;;;;;;;7.81;67.93;98334.59;10218611;28;20082;-62
2024/02/12 05:10:57;;;;;;;1.08;0.68;;;;;;;7.81;68.02;98340.59;10207627;28;20278;-62
2024/02/12 05:15:59;;;;;;;0.68;0.68;;;;;;;7.85;68.02;98342.03;10206473;28;20082;-62
2024/02/12 05:26:21;;;;;;;0.70;0.70;;;;;;;7.72;68.21;98351.69;10214275;28;20812;-62
2024/02/12 05:31:24;;;;;;;1.27;1.00;;;;;;;7.71;68.10;98355.22;10209367;28;20055;-62
2024/02/12 05:36:27;;;;;;;0.80;0.80;;;;;;;7.68;68.08;98355.47;10209739;28;20051;-61
2024/02/12 05:41:29;;;;;;;1.83;0.90;;;;;;;7.78;67.75;98353.00;10207725;28;20062;-62
2024/02/12 05:46:31;;;;;;;3.70;0.85;;;;;;;7.76;67.49;98355.72;10209851;28;20081;-61
2024/02/12 05:51:34;;;;;;;1.33;1.08;;;;;;;7.63;67.72;98362.75;10212863;28;20047;-61
2024/02/12 05:56:39;;;;;;;1.52;0.90;;;;;;;7.57;67.97;98365.81;10217203;28;20627;-61
2024/02/12 06:01:43;;;;;;;0.93;0.82;;;;;;;7.58;67.86;98371.84;10210159;28;20052;-62
2024/02/12 06:06:45;;;;;;;1.55;1.00;;;;;;;7.57;67.83;98373.59;10224944;28;20055;-61
2024/02/12 06:11:48;;;;;;;1.70;1.00;;;;;;;7.55;67.87;98380.69;10202944;28;20043;-61
2024/02/12 06:16:50;;;;;;;1.02;0.85;;;;;;;7.58;67.79;98385.69;10215639;28;20515;-61
2024/02/12 06:21:52;;;;;;;1.55;0.90;;;;;;;7.58;67.72;98392.66;10227028;28;20053;-62
2024/02/12 06:26:55;;;;;;;1.83;1.10;;;;;;;7.52;67.87;98401.75;10220596;28;20411;-61
2024/02/12 06:31:57;;;;;;;2.95;1.30;;;;;;;7.54;67.72;98412.03;10231564;28;20453;-61
2024/02/12 06:36:59;;;;;;;2.13;1.33;;;;;;;7.59;67.74;98417.75;10228095;29;20499;-61
2024/02/12 06:42:01;;;;;;;2.38;1.50;;;;;;;7.53;67.85;98416.41;10224671;28;20051;-61
2024/02/12 06:47:04;;;;;;;4.20;1.40;;;;;;;7.50;68.01;98429.63;10217996;28;20058;-63
2024/02/12 06:52:06;;;;;;;2.28;1.55;;;;;;;7.60;67.62;98441.03;10208303;28;20047;-60
2024/02/12 06:57:08;;;;;;;3.25;1.63;;;;;;;7.61;67.66;98452.28;10218335;28;20055;-61
2024/02/12 07:02:10;;;;;;;1.48;1.08;;;;;;;7.66;67.63;98453.63;10211436;28;20515;-62
2024/02/12 07:07:16;;;;;;;1.95;1.40;;;;;;;7.52;67.76;98461.56;10214182;28;20077;-61
2024/02/12 07:12:18;;;;;;;2.95;1.58;;;;;;;7.62;67.50;98470.38;10220055;28;20138;-63
2024/02/12 07:17:20;;;;;;;2.03;1.42;;;;;;;7.67;67.20;98477.88;10222811;28;20140;-63
2024/02/12 07:22:22;;;;;;;2.63;1.50;;;;;;;7.66;67.14;98487.44;10217975;28;20777;-62
2024/02/12 07:27:24;;;;;;;1.48;1.20;;;;;;;7.76;66.88;98496.25;10215206;28;20043;-62
2024/02/12 07:32:26;;;;;;;2.60;1.50;;;;;;;7.85;66.77;98503.41;10212810;28;20055;-62
2024/02/12 07:37:28;;;;;;;3.53;1.83;;;;;;;7.96;66.41;98511.28;10214175;28;20059;-62
2024/02/12 07:42:31;;;;;;;2.55;1.52;;;;;;;7.92;66.19;98520.25;10212699;28;20070;-62
2024/02/12 07:47:37;;;;;;;2.83;1.60;;;;;;;7.85;66.38;98524.22;10213262;28;20494;-61
2024/02/12 07:52:39;;;;;;;2.42;1.50;;;;;;;8.05;66.18;98530.63;10211324;28;20050;-62
2024/02/12 07:57:44;;;;;;;5.50;1.60;;;;;;;8.24;65.50;98538.78;10216123;28;20912;-62
2024/02/12 08:02:46;;;;;;;2.35;1.60;;;;;;;8.17;65.53;98545.41;10214846;28;20124;-62
2024/02/12 08:07:48;;;;;;;3.97;1.55;;;;;;;8.10;65.63;98554.59;10211653;28;20108;-62
2024/02/12 08:13:04;;;;;;;3.70;1.50;;;;;;;8.18;65.44;98557.47;10206783;28;20055;-62
2024/02/12 08:18:06;;;;;;;3.38;1.50;;;;;;;8.33;64.91;98571.16;10215176;28;20055;-63
2024/02/12 08:23:09;;;;;;;6.22;2.88;;;;;;;8.36;64.98;98570.97;10215694;28;20051;-62
2024/02/12 08:28:11;;;;;;;5.30;2.40;;;;;;;8.35;64.93;98582.31;10228236;28;20062;-62
2024/02/12 08:33:13;;;;;;;4.45;2.00;;;;;;;8.48;64.82;98586.53;10222337;28;20158;-61
2024/02/12 08:38:15;;;;;;;2.80;1.60;;;;;;;8.67;64.30;98599.88;10224568;28;20079;-61
2024/02/12 08:43:18;;;;;;;3.20;1.83;;;;;;;8.75;64.15;98601.94;10224549;28;20157;-61
2024/02/12 08:48:20;;;;;;;4.05;1.77;;;;;;;8.75;64.19;98614.97;10223515;28;20043;-63
2024/02/12 08:53:22;;;;;;;3.50;1.52;;;;;;;8.65;63.96;98608.75;10206041;28;20578;-61
2024/02/12 08:58:24;;;;;;;3.67;1.60;;;;;;;8.63;64.02;98610.63;10210862;28;20142;-61
2024/02/12 09:03:26;;;;;;;2.75;1.75;;;;;;;8.59;63.82;98623.06;10208707;28;20588;-61
2024/02/12 09:08:28;;;;;;;2.28;1.38;;;;;;;8.54;63.73;98630.41;10208478;28;20804;-61
2024/02/12 09:13:31;;;;;;;4.90;1.80;;;;;;;8.56;63.74;98636.31;10209514;28;20073;-61
2024/02/12 09:18:37;;;;;;;3.13;1.80;;;;;;;8.61;63.53;98644.63;10208137;28;20050;-61
2024/02/12 09:23:40;;;;;;;3.67;1.70;;;;;;;8.74;63.53;98655.00;10210112;28;20682;-55
2024/02/12 09:28:43;;;;;;;2.63;1.40;;;;;;;8.95;62.90;98648.25;10231279;28;20080;-55
2024/02/12 09:33:46;;;;;;;3.17;1.40;;;;;;;9.02;62.96;98665.09;10228755;28;20651;-56
2024/02/12 09:38:50;;;;;;;3.38;1.50;;;;;;;8.87;63.20;98678.41;10224421;28;20051;-53
2024/02/12 09:43:54;;;;;;;3.17;1.90;;;;;;;8.82;63.27;98686.56;10229525;28;20185;-57
2024/02/12 09:48:58;;;;;;;3.65;1.70;;;;;;;8.65;63.70;98686.94;10235916;28;20068;-54
2024/02/12 09:54:02;;;;;;;2.75;1.60;;;;;;;8.51;64.20;98694.91;10231932;28;20047;-54
2024/02/12 09:59:08;;;;;;;4.80;1.35;;;;;;;8.50;64.23;98696.69;10232029;28;20539;-55
2024/02/12 10:04:10;;;;;;;3.65;1.70;;;;;;;8.56;64.37;98693.66;10233542;28;20047;-57
2024/02/12 10:09:32;;;;;;;2.67;1.60;;;;;;;8.73;64.24;98708.91;10224033;28;20797;-53
2024/02/12 10:14:54;;;;;;;4.15;1.70;;;;;;;8.83;64.52;98706.50;10221330;28;20051;-55
2024/02/12 10:20:18;;;;;;;2.53;1.50;;;;;;;9.16;64.00;98714.47;10221246;28;20063;-57
2024/02/12 10:25:45;;;;;;;2.70;1.40;;;;;;;9.20;63.73;98723.72;10211294;28;20738;-54
2024/02/12 10:31:09;;;;;;;3.45;1.40;;;;;;;9.20;63.57;98728.94;10222851;28;20059;-55
2024/02/12 10:36:31;;;;;;;2.22;1.40;;;;;;;9.10;63.71;98733.16;10230313;28;20051;-57
2024/02/12 10:41:56;;;;;;;5.00;1.70;;;;;;;9.15;63.54;98727.63;10221909;28;20063;-56
2024/02/12 10:47:18;;;;;;;5.28;1.83;;;;;;;9.10;63.73;98725.34;10199548;28;20173;-57
2024/02/12 10:52:44;;;;;;;3.75;2.03;;;;;;;9.10;63.80;98730.56;10222317;28;20058;-55
2024/02/12 10:58:06;;;;;;;3.08;1.80;;;;;;;9.36;63.54;98729.47;10216972;28;20563;-57
2024/02/12 11:03:09;;;;;;;2.95;1.40;;;;;;;9.47;63.19;98739.97;10225250;28;20450;-59
2024/02/12 11:08:15;;;;;;;2.58;1.60;;;;;;;9.90;62.32;98737.63;10226333;28;20140;-57
2024/02/12 11:13:19;;;;;;;3.25;1.40;;;;;;;10.05;61.91;98746.06;10230744;28;20489;-54
2024/02/12 11:18:25;;;;;;;16.52;2.55;;;;;;;10.01;62.16;98750.69;10227031;28;20568;-57
2024/02/12 11:23:28;;;;;;;2.20;1.50;;;;;;;10.20;61.72;98750.09;10227576;28;20108;-55
2024/02/12 11:28:31;;;;;;;2.80;1.45;;;;;;;10.01;61.64;98755.09;10230329;28;20055;-56
2024/02/12 11:33:33;;;;;;;2.55;1.35;;;;;;;10.23;61.34;98755.94;10224383;28;20130;-55
2024/02/12 11:38:37;;;;;;;2.85;1.40;;;;;;;10.30;60.97;98751.06;10227269;28;20058;-57
2024/02/12 11:43:39;;;;;;;3.13;1.90;;;;;;;10.72;60.55;98752.97;10222744;28;20313;-54
2024/02/12 11:48:42;;;;;;;2.35;1.38;;;;;;;11.17;59.79;98754.53;10229483;28;20039;-57
2024/02/12 11:53:44;;;;;;;3.42;1.60;;;;;;;11.41;59.10;98761.38;10223286;28;20050;-57
2024/02/12 11:58:56;;;;;;;2.17;1.30;;;;;;;11.54;57.79;98757.63;10227344;28;20137;-55
2024/02/12 12:03:59;;;;;;;1.65;1.20;;;;;;;11.66;58.09;98756.59;10213763;28;20058;-54
2024/02/12 12:09:11;;;;;;;2.58;1.60;;;;;;;11.78;56.72;98767.88;10221822;28;20061;-56
2024/02/12 12:14:13;;;;;;;3.65;1.70;;;;;;;11.67;57.23;98763.50;10221469;28;20550;-56
2024/02/12 12:19:15;;;;;;;2.85;1.90;;;;;;;11.58;57.00;98769.50;10225466;28;20069;-55
2024/02/12 12:24:18;;;;;;;3.25;1.80;;;;;;;11.49;56.59;98766.81;10229925;28;20044;-56
2024/02/12 12:29:20;;;;;;;2.03;1.30;;;;;;;11.45;56.54;98763.63;10228045;28;20150;-55
2024/02/12 12:34:30;;;;;;;2.88;1.67;;;;;;;11.19;56.80;98767.53;10229172;28;20051;-56
2024/02/12 12:39:32;;;;;;;2.28;1.40;;;;;;;11.20;56.96;98762.16;10228251;28;20054;-56
2024/02/12 12:44:34;;;;;;;2.17;1.35;;;;;;;11.27;56.44;98770.34;10226668;28;21474;-56
2024/02/12 12:49:37;;;;;;;2.55;1.67;;;;;;;11.12;56.20;98776.81;10226082;28;20469;-57
2024/02/12 12:54:39;;;;;;;1.10;0.90;;;;;;;10.93;56.16;98776.59;10224595;28;20055;-55
2024/02/12 12:59:41;;;;;;;2.63;1.15;;;;;;;10.67;55.87;98781.25;10226861;28;20055;-57
2024/02/12 13:04:44;;;;;;;2.90;1.13;;;;;;;10.74;55.59;98787.66;10233105;28;20403;-55
2024/02/12 13:09:45;;;;;;;4.03;1.20;;;;;;;10.58;55.61;98792.44;10231927;28;20071;-56
2024/02/12 13:14:52;;;;;;;2.70;1.25;;;;;;;10.48;55.10;98794.09;10234429;28;20102;-55
2024/02/12 13:19:54;;;;;;;1.25;0.93;;;;;;;10.49;54.87;98798.38;10234590;28;20168;-57
2024/02/12 13:24:56;;;;;;;6.50;1.60;;;;;;;10.61;54.87;98801.81;10233598;28;20043;-57
2024/02/12 13:30:08;;;;;;;1.73;1.10;;;;;;;10.78;54.94;98809.19;10214332;28;20105;-56
2024/02/12 13:35:10;;;;;;;2.17;1.20;;;;;;;10.83;54.42;98810.47;10231237;28;20053;-57
2024/02/12 13:40:17;;;;;;;1.33;0.95;;;;;;;10.83;54.61;98817.47;10231754;28;20066;-56
2024/02/12 13:45:20;;;;;;;1.50;1.10;;;;;;;10.75;54.54;98822.47;10229884;28;20059;-57
2024/02/12 13:50:28;;;;;;;2.53;1.63;;;;;;;10.84;54.69;98825.22;10227977;28;20049;-56
2024/02/12 13:55:30;;;;;;;2.50;1.33;;;;;;;11.36;54.23;98819.31;10234787;28;20144;-53
2024/02/12 14:00:32;;;;;;;1.88;1.33;;;;;;;11.48;53.72;98834.03;10224440;28;20108;-57
2024/02/12 14:05:54;;;;;;;2.60;1.85;;;;;;;11.48;53.57;98833.22;10215301;28;20047;-57
2024/02/12 14:10:58;;;;;;;4.60;2.35;;;;;;;11.34;53.58;98842.19;10221131;28;20109;-55
2024/02/12 14:16:00;;;;;;;5.47;1.70;;;;;;;11.34;53.05;98842.19;10229878;28;20047;-56
2024/02/12 14:21:12;;;;;;;2.17;1.50;;;;;;;11.43;53.20;98854.53;10223015;28;20043;-56
2024/02/12 14:26:16;;;;;;;2.85;1.25;;;;;;;11.64;52.46;98857.22;10229435;28;20053;-57
2024/02/12 14:31:20;;;;;;;2.05;1.30;;;;;;;11.71;51.98;98859.22;10223830;28;20081;-55
2024/02/12 14:36:22;;;;;;;2.45;1.00;;;;;;;11.70;51.49;98864.59;10229460;28;20602;-56
2024/02/12 14:41:24;;;;;;;2.33;1.45;;;;;;;11.49;51.19;98875.00;10227566;28;20060;-55
2024/02/12 14:46:26;;;;;;;2.72;1.30;;;;;;;11.31;51.36;98881.69;10222616;28;20465;-55
2024/02/12 14:51:35;;;;;;;1.63;1.20;;;;;;;11.20;51.21;98890.41;10232851;28;20504;-54
2024/02/12 14:56:37;;;;;;;1.92;1.25;;;;;;;11.31;50.89;98894.78;10229203;28;20055;-56
2024/02/12 15:01:41;;;;;;;1.27;1.10;;;;;;;11.47;50.15;98904.88;10226505;28;20047;-55
2024/02/12 15:06:44;;;;;;;2.45;1.27;;;;;;;11.21;50.53;98910.38;10227714;28;20047;-57
2024/02/12 15:11:46;;;;;;;1.55;1.02;;;;;;;11.06;50.89;98914.19;10210528;28;20384;-56
2024/02/12 15:16:50;;;;;;;1.88;1.02;;;;;;;11.04;50.77;98923.09;10224878;28;20351;-57
2024/02/12 15:21:54;;;;;;;3.40;1.17;;;;;;;10.91;50.81;98923.19;10224779;28;20051;-55
2024/02/12 15:26:56;;;;;;;1.77;1.38;;;;;;;10.79;50.73;98937.19;10233682;28;20047;-57
2024/02/12 15:31:58;;;;;;;1.60;0.93;;;;;;;10.88;50.87;98935.66;10230041;28;20125;-56
2024/02/12 15:37:02;;;;;;;0.70;0.70;;;;;;;10.69;50.48;98948.47;10231021;28;20133;-56
2024/02/12 15:42:05;;;;;;;2.40;1.08;;;;;;;10.68;50.91;98955.50;10230469;28;20048;-56
2024/02/12 15:47:08;;;;;;;1.80;0.90;;;;;;;10.64;51.06;98958.47;10258532;28;20078;-57
2024/02/12 15:52:12;;;;;;;3.28;1.25;;;;;;;10.59;51.26;98961.41;10231070;28;20055;-56
2024/02/12 15:57:17;;;;;;;3.60;1.10;;;;;;;10.28;50.71;98972.47;10227196;28;20591;-57
2024/02/12 16:02:19;;;;;;;3.33;1.30;;;;;;;10.13;51.03;98986.66;10229158;28;20117;-57
2024/02/12 16:07:21;;;;;;;1.85;1.10;;;;;;;9.83;51.31;99001.94;10222790;28;20053;-57
2024/02/12 16:12:23;;;;;;;5.68;1.05;;;;;;;9.71;51.41;99005.44;10221709;28;20133;-57
2024/02/12 16:17:26;;;;;;;1.38;1.00;;;;;;;9.60;51.46;99013.97;10217770;28;20049;-55
2024/02/12 16:22:28;;;;;;;1.38;1.10;;;;;;;9.60;51.54;99033.09;10216496;28;20054;-58
2024/02/12 16:27:30;;;;;;;1.83;1.05;;;;;;;9.65;51.56;99041.41;10224178;28;20537;-57
2024/02/12 16:32:32;;;;;;;4.53;2.13;;;;;;;9.59;51.21;99054.06;10217452;28;20043;-58
2024/02/12 16:37:34;;;;;;;2.72;1.40;;;;;;;9.53;51.24;99062.31;10214163;28;20051;-55
2024/02/12 16:42:38;;;;;;;2.30;1.30;;;;;;;9.51;51.33;99065.03;10222196;28;20479;-54
2024/02/12 16:47:42;;;;;;;8.73;2.55;;;;;;;9.39;51.50;99076.31;10222576;28;20071;-57
2024/02/12 16:52:44;;;;;;;3.67;2.10;;;;;;;9.27;51.83;99086.75;10223043;28;20043;-57
2024/02/12 16:57:48;;;;;;;3.83;2.10;;;;;;;9.13;52.27;99095.53;10221762;28;20058;-55
2024/02/12 17:02:54;;;;;;;4.13;1.73;;;;;;;9.10;52.37;99106.16;10222655;28;20048;-57
2024/02/12 17:07:58;;;;;;;4.78;2.17;;;;;;;9.18;52.40;99116.09;10217807;28;20958;-57
2024/02/12 17:13:11;;;;;;;3.53;1.65;;;;;;;9.24;51.89;99123.50;10222133;28;20129;-57
2024/02/12 17:18:16;;;;;;;3.40;1.77;;;;;;;9.29;51.65;99139.66;10219013;28;20522;-54
2024/02/12 17:23:18;;;;;;;2.03;1.05;;;;;;;9.33;51.83;99147.19;10222393;28;20047;-57
2024/02/12 17:28:22;;;;;;;1.48;1.00;;;;;;;9.26;52.03;99172.00;10220132;28;20054;-62
2024/02/12 17:33:25;;;;;;;1.65;1.00;;;;;;;8.87;53.39;99187.69;10220514;28;20057;-62
2024/02/12 17:38:27;;;;;;;2.20;0.98;;;;;;;8.72;53.78;99199.09;10219767;28;20075;-62
2024/02/12 17:43:31;;;;;;;3.53;1.50;;;;;;;8.58;53.93;99204.34;10220126;28;20056;-61
2024/02/12 17:48:36;;;;;;;2.50;0.80;;;;;;;8.43;53.09;99213.09;10226031;28;20057;-61
2024/02/12 17:53:39;;;;;;;2.17;0.82;;;;;;;8.36;54.03;99227.44;10228502;28;20054;-60
2024/02/12 17:58:40;;;;;;;1.13;1.00;;;;;;;8.31;54.16;99226.88;10227529;28;20058;-62
2024/02/12 18:03:42;;;;;;;1.23;1.10;;;;;;;8.10;54.21;99230.78;10228611;28;20043;-61
2024/02/12 18:08:45;;;;;;;1.60;1.10;;;;;;;8.06;54.34;99234.50;10228080;28;20944;-61
2024/02/12 18:13:47;;;;;;;2.55;1.50;;;;;;;7.90;54.59;99248.44;10227481;28;20106;-60
2024/02/12 18:18:49;;;;;;;2.17;1.30;;;;;;;7.64;55.26;99256.09;10226610;28;20170;-60
2024/02/12 18:23:51;;;;;;;2.00;1.10;;;;;;;7.45;55.54;99256.31;10210548;28;20749;-60
2024/02/12 18:28:53;;;;;;;8.85;4.38;;;;;;;7.45;55.54;99264.13;10226566;28;20917;-60
2024/02/12 18:33:55;;;;;;;3.75;2.35;;;;;;;7.41;55.98;99278.25;10223068;28;20058;-60
2024/02/12 18:38:59;;;;;;;5.18;2.53;;;;;;;7.27;56.01;99280.78;10224897;28;20069;-61
2024/02/12 18:44:03;;;;;;;4.32;1.70;;;;;;;7.10;56.24;99294.72;10227773;28;20050;-61
2024/02/12 18:49:07;;;;;;;1.80;1.17;;;;;;;7.06;56.55;99306.22;10224648;28;20138;-60
2024/02/12 18:54:09;;;;;;;1.90;1.25;;;;;;;6.80;57.60;99314.63;10220612;28;20051;-61
2024/02/12 18:59:12;;;;;;;2.20;1.00;;;;;;;6.72;57.96;99318.53;10226479;29;20047;-61
2024/02/12 19:04:15;;;;;;;2.65;0.82;;;;;;;6.66;58.04;99330.13;10225740;28;20170;-61
2024/02/12 19:09:17;;;;;;;1.85;0.95;;;;;;;6.59;58.67;99333.13;10226065;28;20836;-60
2024/02/12 19:14:19;;;;;;;2.58;1.10;;;;;;;6.49;59.18;99348.34;10206823;28;20055;-60
2024/02/12 19:19:22;;;;;;;2.08;1.30;;;;;;;6.45;59.19;99365.00;10223743;28;20078;-60
2024/02/12 19:24:24;;;;;;;2.60;0.90;;;;;;;6.53;59.16;99380.22;10225855;28;20050;-60
2024/02/12 19:29:26;;;;;;;1.75;1.33;;;;;;;6.49;59.31;99387.31;10221611;28;20051;-60
2024/02/12 19:34:29;;;;;;;0.93;0.93;;;;;;;6.43;59.64;99394.59;10222949;28;20047;-61
2024/02/12 19:39:33;;;;;;;2.67;1.15;;;;;;;6.37;59.78;99403.53;10224976;28;20430;-60
2024/02/12 19:44:35;;;;;;;1.52;0.90;;;;;;;6.42;59.74;99405.88;10225406;28;20047;-60
2024/02/12 19:49:37;;;;;;;2.20;0.82;;;;;;;6.25;60.50;99405.00;10222824;28;20142;-60
2024/02/12 19:54:39;;;;;;;3.05;0.80;;;;;;;6.26;59.97;99411.03;10225944;28;21512;-61
2024/02/12 19:59:41;;;;;;;1.92;1.30;;;;;;;6.17;60.45;99424.44;10224750;28;20052;-60
2024/02/12 20:04:43;;;;;;;1.40;0.98;;;;;;;6.03;61.32;99432.91;10219624;28;20098;-60
2024/02/12 20:09:48;;;;;;;14.60;5.35;;;;;;;5.98;61.02;99440.06;10219279;28;20060;-60
2024/02/12 20:14:50;;;;;;;2.35;1.40;;;;;;;5.95;60.83;99449.75;10223600;28;20043;-60
2024/02/12 20:19:52;;;;;;;3.97;2.10;;;;;;;5.87;61.10;99444.94;10226126;28;20538;-60
2024/02/12 20:24:54;;;;;;;2.63;1.20;;;;;;;5.80;61.24;99464.31;10222167;28;20134;-61
2024/02/12 20:29:56;;;;;;;4.40;1.73;;;;;;;5.84;61.08;99471.03;10225503;28;20410;-60
2024/02/12 20:34:58;;;;;;;2.33;1.45;;;;;;;5.87;61.30;99475.25;10225160;28;20058;-60
2024/02/12 20:40:01;;;;;;;2.13;1.15;;;;;;;5.84;61.15;99494.38;10225501;28;20047;-60
2024/02/12 20:45:09;;;;;;;2.90;1.80;;;;;;;5.69;61.59;99496.88;10218997;28;20083;-60
2024/02/12 20:50:11;;;;;;;3.55;1.10;;;;;;;5.61;61.94;99502.44;10221951;28;20469;-60
2024/02/12 20:55:14;;;;;;;1.70;1.10;;;;;;;5.58;61.92;99512.94;10217600;28;20055;-60
2024/02/12 21:00:18;;;;;;;2.78;1.10;;;;;;;5.43;62.32;99516.25;10220106;28;20066;-61
2024/02/12 21:05:40;;;;;;;2.20;1.20;;;;;;;5.38;62.22;99526.81;10222572;28;20043;-61
2024/02/12 21:10:54;;;;;;;4.00;1.20;;;;;;;5.34;62.41;99533.03;10220284;28;20181;-59
2024/02/12 21:15:58;;;;;;;1.15;1.00;;;;;;;5.28;62.58;99550.63;10223236;28;20051;-61
2024/02/12 21:21:00;;;;;;;4.15;1.02;;;;;;;5.28;62.67;99550.63;10223312;28;20091;-59
2024/02/12 21:26:02;;;;;;;1.88;1.13;;;;;;;5.29;62.66;99560.06;10226131;28;20045;-60
2024/02/12 21:31:04;;;;;;;1.60;1.20;;;;;;;5.18;62.39;99563.16;10226144;28;20047;-60
2024/02/12 21:36:08;;;;;;;3.03;1.25;;;;;;;5.04;63.06;99572.44;10231756;28;20047;-60
2024/02/12 21:46:31;;;;;;;2.80;1.40;;;;;;;4.95;62.98;99572.81;10231895;28;20047;-60
2024/02/12 21:51:34;;;;;;;1.33;1.10;;;;;;;4.95;62.95;99585.78;10226715;29;20071;-60
2024/02/12 21:56:36;;;;;;;5.38;1.60;;;;;;;4.87;62.96;99590.44;10229710;28;20407;-60
2024/02/12 22:01:38;;;;;;;3.30;1.67;;;;;;;4.75;63.15;99596.97;10227728;28;20043;-60
2024/02/12 22:06:40;;;;;;;1.65;1.10;;;;;;;4.57;64.03;99595.13;10225924;28;20050;-60
2024/02/12 22:11:42;;;;;;;2.40;1.25;;;;;;;4.62;64.00;99600.97;10225809;28;20039;-61
2024/02/12 22:16:44;;;;;;;2.22;1.33;;;;;;;4.66;63.94;99611.13;10227124;28;20055;-60
2024/02/12 22:21:46;;;;;;;2.90;1.10;;;;;;;4.66;64.17;99611.13;10230625;28;20055;-61
2024/02/12 22:26:48;;;;;;;1.65;1.10;;;;;;;4.62;64.38;99617.34;10226340;28;20481;-61
2024/02/12 22:31:51;;;;;;;1.40;1.00;;;;;;;4.61;64.30;99620.88;10230327;28;20058;-61
2024/02/12 22:36:53;;;;;;;1.95;1.20;;;;;;;4.52;64.74;99631.56;10228956;28;20047;-61
2024/02/12 22:41:56;;;;;;;2.92;1.85;;;;;;;4.49;65.35;99642.06;10227851;28;20075;-61
2024/02/12 22:46:57;;;;;;;1.55;1.00;;;;;;;4.60;64.51;99658.00;10227305;28;20109;-61
2024/02/12 22:51:59;;;;;;;2.83;1.25;;;;;;;4.65;64.17;99663.00;10227303;28;20138;-61
2024/02/12 22:57:03;;;;;;;1.73;1.02;;;;;;;4.58;64.49;99670.19;10226572;28;20063;-61
2024/02/12 23:02:05;;;;;;;3.10;1.27;;;;;;;4.57;64.41;99678.88;10226715;28;20054;-61
2024/02/12 23:07:08;;;;;;;3.22;1.65;;;;;;;4.56;64.46;99684.09;10225266;28;20058;-61
2024/02/12 23:12:09;;;;;;;3.50;1.20;;;;;;;4.55;64.62;99688.44;10219483;28;20443;-61
2024/02/12 23:17:12;;;;;;;4.32;1.30;;;;;;;4.55;64.72;99687.59;10224018;28;20460;-61
2024/02/12 23:22:15;;;;;;;2.05;1.30;;;;;;;4.50;64.97;99705.88;10226974;28;20054;-63
2024/02/12 23:27:18;;;;;;;2.45;1.38;;;;;;;4.47;65.15;99720.72;10225488;28;20082;-61
2024/02/12 23:32:21;;;;;;;4.93;1.75;;;;;;;4.50;65.07;99731.78;10210510;28;21132;-61
2024/02/12 23:37:24;;;;;;;3.38;1.40;;;;;;;4.45;65.34;99745.81;10226643;28;20086;-61
2024/02/12 23:42:26;;;;;;;3.03;1.73;;;;;;;4.42;65.50;99749.34;10225039;28;20531;-61
2024/02/12 23:47:31;;;;;;;3.20;1.73;;;;;;;4.49;64.98;99757.75;10227754;28;20047;-61
2024/02/12 23:52:36;;;;;;;2.35;1.33;;;;;;;4.44;65.25;99768.28;10227314;28;20047;-61
2024/02/12 23:57:38;;;;;;;2.70;1.50;;;;;;;4.41;65.02;99768.38;10225945;28;20057;-61
